Home
AZRM News
About
Pre Orders
Ordering
Military items
Tools
Figures
1-12 STORE
1-20 STORE
1-24 STORE
1-43 & 64 STORE
MotoGP STORE
Sports Car STORE
Diecast Store
Lotus 72C 1:12
Finishing Materials
How To
Ref. Material
Race Trips
Customer Gallery
Links
Model Factory

Mac's Modeling, LLC  

 
Click on Logo above to visit F'artefice website
Hard to find Decals

Updated 08/10/2017 
orders@macsmodeling.com        Email for quote with shipping

Legend: OOS = Out of Stock, OOP = Out Of Production (no chance of any more unless re-released) Sold Out = I have not tried to order any more, maybe available, ask. SOLD = That was all I had and they are sold out and OOP, not likely to have any more.

Decals available from - All scales.

SCALE Stock Model #

Description

Price

Yen

No Scale 4 FE-0107  (SS-2) Super Small Carbon Decal $9.00 700JPY
No Scale 5 FE-0074  (SS) Super Small Carbon Decal $9.00 700JPY
No Scale 0 FE-0080  (S) Small Carbon Decal (pack of 5 sheets, FE-0073) $35.00 3300JPY
No Scale 3 FE-0073  (S) Small Carbon Decal $9.00 700JPY
No Scale 3 FE-0072  (M) Medium Carbon Decal $9.00 700JPY
No Scale 1 FE-0079  (M) Medium Carbon Decal (Pack of 5 sheets of FE-0072) $35.00 3300JPY
           
1:43 0 FB-0002 Jordan EJ12 $13.75 1050JPY
1:43 1 FB-0003 Jordan EJ11 $14.75 1100JPY
1:43 0 FE-0003 McLaren F1GTR. TAG Heuer $11.00 840JPY
1:43 1 FE-0016 Lotus 97T  JPS for Tameo $13.75 1050JPY
1:43 1 FE-0028 Williams FW16 $14.75 1100JPY
1:43 0 FE-0038 Lotus 72D  JPS $11.00 840JPY
1:43 0 FE-0039 Lotus 79  JPS $11.00 840JPY
1:43 0 FE-0040 Lotus 98T  JPS for Tameo $14.50 1100JPY
1:43 0 FE-0042 Lotus 99T $14.75 1100JPY
1:43 1 FE-0043 Green tire rings $11.00 840JPY
1:43 7 FE-0044 Brawn BGP001 season except Brazil $16.50 1260JPY
1:43 2 FE-0046 Lotus 79 $14.50 1100JPY
1:43 0 FE-0050 Williams FW16 $14.50 1100JPY
1:43 2 FE-0087 GY Tire markings $8.50 630JPY
1:43 3 FE-0093 Ligier JS11 $12.75 945JPY
1:43 0 FL-0005 BAR006, Davidson Friday, Italy $16.50 1260JPY
1:43 0 FL-0011 BAR006 $14.00 1050JPY
1:43 0 FL-0020 BAR006, Davidson Friday, Brazil $16.50 1260JPY
1:43 2 FL-0021 BAR 01 Show car $14.00 1050JPY
1:43 2 FL-0022 BAR 01 Show car $14.00 1050JPY
1:43 0 FL-0023 BAR005 with driver decals $14.00 1050JPY
1:43 0 FL-0024 BAR006, Davidson Friday, China $20.50 1575JPY
1:43 0 FL-0026 Honda RA106 LS $13.75 1050JPY
1:43 0 FL-0027 Honda RA106, Turkey, Brazil, Italy "Last Blast" $13.75 1050JPY
1:43 1 FL-0028 Honda RA106, China $13.75 1050JPY
1:43 2 FL-0029 Honda RA106, Turkey, A Davidson $13.75 1050JPY
1:43 2 FL-0030 Honda RA 106, $13.75 1050JPY
1:43 2 FM-0009 Ferrari F2004M ~ F2004 $16.75 1260JPY
1:43 1 FM-0010 McLaren MP4/4 $14.00 1050JPY
1:43 3 FM-0011 McLaren MP4/6 $14.00 1050JPY
1:43 1 FM-0017 Ferrari F248 $14.00 1050JPY
1:43 0 FM-0023 Ferrari F248 $14.00 1050JPY
1:43 1 FM-0054 Ferrari F1-2000 ~ F2004 $25.00 1890JPY
1:43 1 FM-0060 Ferrari F2008, Type 1 $14.50 1100JPY
1:43 1 FM-0061 Ferrari F2008, Type 2 $14.50 1100JPY
1:43 0 FM-0065 McLaren MP4/5 $14.75 1100JPY
1:43 0 FM-0073 McLaren M26 $13.75 1050JPY
1:43 2 FM-0074 Ferrari F2001 $14.75 1050JPY
1:43 2 FM-0085 Ferrari F60, Fill in and drivers $14.75 1050JPY
1:43 2 FM-0086 Ferrari F60, repaint set $21.00 1050JPY
1:43 2 FM-0094 McLaren MP4/8 $14.50 1100JPY
1:43 1 FM-0097 McLaren MP4/7 $14.75 1100JPY
1:43 1 FM-0099 Ferrari F10 repaint set $18.25 1365JPY
1:43 0 FM-0102 Ferrari F1-2000, F2001, F10 and 641/2 $14.75 1100JPY
1:43 5 FM-0103 Ferrari F2003GA, 126CK, 412T2 and 312T $17.00 1260JPY
1:43 5 FM-0107 Ferrari 126C2B, 640, F1-88C, F399, F2002, 246F1....Vol 10~19. Type 3 $17.00 1260JPY
1:43 2 FW-0004 McLaren MP4/20, Carbon templates, Tameo $14.00 1050JPY
1:43 2 FW-0006 McLaren MP4/19B, MP4/20, for PMA Replaced FW-0001 $11.25 840JPY
1:43 1 FW-0007 McLaren MP4/13 $14.75 1100JPY
           
           
1:20 4 FE-0004 Ligier JS11 $24.50 1840JPY
1:20 6 FE-0007 Williams FW16 (MFH) $15.75 1260JPY
1:20 0 FE-0014 Lotus 99T $25.00 1890JPY
1:20 6 FE-0018 Lotus 25 $14.00 1050JPY
1:20 3 FE-0019 Williams FW13B $22.00 1800JPY
1:20 0 FE-0020 Brabham BT46 $19.50 1575JPY
1:20 0 FE-0048 Green stripes for tire wall $10.75 840JPY
1:20 0 FE-0049 Complete set of decals for Fujimi Williams FW16 $25.00 1890JPY
1:20 0 FE-0052 Full set of decals for Tamiya Lotus 79, very comprehensive. (Layout) $26.00 2100JPY
1:20 0 FE-0053 Full set of decals for Hasegawa Lotus 79, very comprehensive. (Layout) $26.00 2100JPY
1:20 1 FE-0054 Fill in set for FW14B $14.75 1100JPY
1:20 0 FE-0055 Full set of decals for Fujimi FW14B $22.50 1680JPY
1:20 0 FE-0059 Lotus 97T Full set $25.00 1890JPY
1:20 1 FE-0060 Lotus 78 repaint set $28.00 2100JPY
1:20 2 FE-0061 Lotus 78 Imperial set $14.75 1100JPY
1:20 4 FE-0062 Lotus 79 version 2, full set (Replaced FE-0052) $22.00 2205JPY
1:20 1 FE-0065 BS tire sidewall decals (These are reversed ) Application Instructions in English $8.50 630JPY
1:20 0 FE-0066 GY tire sidewall decals (These are reversed ) Application Instructions in English $8.50 630JPY
1:20 0 FE-0094 Williams FW11B $25.00 1890JPY
1:20 4 FE-0101 Lotus 72C, Fill in set $8.50 630JPY
1:20 3 FE-0102 Lotus 72C, Full set $28.00 2100JPY
1:20 0 FH-0001 Driver Helmet Kimi (Monaco and Japan) $13.50 1050JPY
1:20 0 FH-0002 Driver Helmet Alonso $13.50 1050JPY
1:20 1 FH-0005 Driver Helmet Kimi 2007 $13.50 1050JPY
1:20 0 FM-0019 Ferrari 126C4, 156/85 and 412T1 $16.75 1260JPY
1:20 1 FM-0020 McLaren MP4/2C and MP4/3 $15.75 1260JPY
1:20 0 FM-0028 Ferrari F2003GA Fill in $16.75 1260JPY
1:20 1 FM-0030 McLaren MP4/5B $23.75 1785JPY
1:20 1 FM-0031 Ferrari F2004 $16.75 1260JPY
1:20 0 FM-0032 Ferrari F92AT (Re-prints) $25.00 1890JPY
1:20 1 FM-0033 Ferrari F248 $16.75 1260JPY
1:20 1 FM-0035 Ferrari F1 89 repaint set $21.00 1575JPY
1:20 0 FM-0037 Ferrari 412T2 $11.25 840JPY
1:20 1 FM-0049 Ferrari F2002 $15.75 1260JPY
1:20 2 FM-0056 Ferrari F2008 $15.75 1260JPY
1:20 0 FM-0063 Ferrari 641/2 Fill in decals, Mansell and Prost $11.25 840JPY
1:20 1 FM-0064 Ferrari 641/2 Full Set $21.00 1575JPY
1:20 7 FM-0081 McLaren MP4/6, M $12.75 1100JPY
1:20 0 FM-0082 McLaren MP4/6, complete re-paint set $21.00 1575JPY
1:20 0 FM-0087 Ferrari F2007 (Fujimi) M $19.50 1470JPY
1:20 0 FM-0088 Ferrari F2007, complete re-paint set $25.00 1890JPY
1:20 0 FM-0089 Ferrari F-60 $13.75 1100JPY
1:20 2 FM-0090 Ferrari F-60, Full set $25.00 1890JPY
1:20 0 FM-0091 Ferrari F187/88 $8.75 630JPY
1:20 0 FM-0095 McLaren MP4/5 fill in decals $14.75 1100JPY
1:20 0 FM-0096 McLaren MP4/5 complete set of decals $21.00 1575JPY
1:20 0 FM-0101 McLaren M23 decal set, 1976 to 1978 $25.00 1890JPY
1:20 0 FM-0106 Ferrari 312T3 $21.00 1575JPY
1:20 0 FR-0004 Renault RE30B $22.50 1680JPY
           
1:18 0 FE-0017 Super Aguri, SAF1, 2007, with driver decals $19.50 1470JPY
1:18 2 FE-0035 Lotus 97T $14.75 1100JPY
1:18 5 FE-0036 Lotus 98T $14.75 1100JPY
1:18 1 FE-0037 Lotus 99T $14.75 1050JPY
1:18 0 FE-0041 Green Tire rings $13.75 1050JPY
1:18 0 FE-0045 Brawn BGP001 season, except Brazil $19.00 1470JPY
1:18 1 FE-0047 Lotus 79 $14.75 1100JPY
1:18 0 FE-0051 Williams FW16 $14.75 1200JPY
1:18 1 FH-0004 Driver, Button (1:18 and 1:43 scale) $13.75 1050JPY
1:18 1 FL-0004 BAR 2005 Show Car $16.75 1050JPY
1:18 4 FL-0006 BAR006, Davidson Friday, Italy $24.75 1890JPY
1:18 0 FL-0008 BAR006, Davidson Friday, Spain $20.50 1575JPY
1:18 1 FL-0017 BAR007, Speed Freak $19.50 1470JPY
1:18 2 FL-0018 BAR, Bonneville 400. 06, test $19.50 1470JPY
1:18 3 FL-0019 BAR006, Davidson Friday, Brazil $22.25 1680JPY
1:18 0 FL-0032 Honda RA106, LS $17.75 1365JPY
1:18 4 FL-0033 Honda RA106, Davidson Friday, China $19.50 1470JPY
1:18 3 FL-0034 Honda RA106, Brazil/Turkey and Italy $17.75 1365JPY
1:18 0 FL-0035 Honda RA106, Turkey $17.75 1365JPY
1:18 1 FL-0036 Honda RA106, Brazil, Davidson $17.75 1365JPY
1:18 2 FL-0037 Honda RA106, Testing $15.75 1200JPY
1:18 3 FM-0007 Driver $8.50 630JPY
1:18 1 FM-0029 Ferrari F2004, fill in

$18.25

1365JPY
1:18 0 FM-0040 Ferrari F2007

$28.00

2100JPY
1:18 2 FM-0042 F248 Driver Schuie, Brazil $14.50 1100JPY
1:18 0 FM-0053 Ferrari F2004 $16.50 1260JPY
1:18 1 FM-0057 Ferrari F2008, Full set, M $18.25 1365JPY
1:18 0 FM-0058 Ferrari F2008, Full set, Bar (re-print) $18.25 1365JPY
1:18 1 FM-0059 Ferrari F2008, Repaint $28.00 2100JPY
1:18 0 FM-0069 Ferrari F1-2000 $14.75 1100JPY
1:18 1 FM-0070 Ferrari F2001 $14.75 1100JPY
1:18 1 FM-0071 Ferrari F2002 $14.75 1100JPY
1:18/1:8 1 FM-0072 Driver $11.00 840JPY
1:18 0 FM-0075 McLaren MP4/4 $14.75 1100JPY
1:18 2 FM-0076 McLaren MP4/5B $14.75 1100JPY
1:18 0 FM-0077 McLaren MP4/6 $14.75 1100JPY
1:18 1 FM-0078 McLaren MP4/7 $14.75 1100JPY
1:18 2 FM-0079 McLaren MP4/2C $14.75 1100JPY
1:18 1 FM-0083 Ferrari F-60 $16.50 1260JPY
1:18 2 FM-0084 Ferrari F-60, Full set including Green tire circles $24.75 1890JPY
1:18 2 FM-0092 McLaren MP4/5 $14.75 1100JPY
1:18 0 FM-0093 McLaren MP4/8 $14.75 1100JPY
1:18 1 FM-0100 Ferrari F10 Repaint $22.50 1680JPY
1:18 0 FR-0005 Renault R26 $15.00 1200JPY
1:18 2 FR-0007 Driver $11.00 840JPY
1:18 0 FW-0003 McLaren MP4/20 $16.50 1260JPY
1:18 2 FW-0005 McLaren MP4/22 $14.50 1100JPY
           
1:12 2 FE-0099 Fill in set for Lotus 72D 1:12 scale $16.50 1260JPY
1:12 0 FE-0100 Full set for Lotus 72D 1:12 scale $30.25 2310JPY
1:12 5 FE-0064 GY tire sidewall decals (These are reversed ) Application Instructions in English $8.50 630JPY
1:12 3 FG-0004 1:12 Scale Ducati 2009 season decals $14.75 1100JPY
1:12 3 FG-0003 1:12 Scale Suzuki RGV, 1993 $14.75 1100JPY
1:12 2 FG-0002 1:12 Scale Ducati 2007 season decals $16.75 1260JPY
           
1:8 1 FM-0021 Ferrari 643, full set $47.75 3675JPY